Terminal Aerodrome Forecast
Issued by NWS

Home | Current Version | Previous Version | Text Only | Print | Product List | Glossary On
Versions: 1 2 3 4 5 6 7 8 9 10 11 12 13 14 15 16 17 18 19 20
974
FTUS46 KLOX 302344
TAFVNY
TAF
KVNY 302344Z 3100/3124 14008KT P6SM SCT025
     FM310300 VRB03KT P6SM SKC
     FM311100 VRB05KT 3SM BR BKN005
     FM311600 15008KT P6SM SCT010=

USA.gov is the U.S. government's official web portal to all federal, state and local government web resources and services.